Latest Weather Observations for Frankston

IDV60801

Issued at 3:12 pm EST Wednesday 19 September 2018 (issued every 10 minutes, with the page automatically refreshed every 10 minutes)

About weather observations | Map of weather stations | Latest weather observations for VIC | Other Formats
Station Details ID: 086371 Name: FRANKSTON AWS Lat: -38.15 Lon: 145.12 Height: 6.0 m
Data from the previous 72 hours. | See also: Recent months at Frankston
Date/Time
EST
Temp
°C
App
Temp
°C
Dew
Point
°C
Rel
Hum
%
Delta-T
°C
Wind Press
QNH
hPa
Press
MSL
hPa
Rain since
9am
mm
Dir  Spd
km/h
Gust
km/h
Spd
kts
Gust
kts
19/03:00pm - - - - - W 15 20 8 11 - - -
19/02:30pm - - - - - W 13 15 7 8 - - -
19/02:00pm - - - - - WNW 17 19 9 10 - - -
19/01:30pm - - - - - W 17 19 9 10 - - -
19/01:00pm - - - - - WNW 24 30 13 16 - - -
19/12:30pm - - - - - WNW 26 30 14 16 - - -
19/12:00pm - - - - - WNW 28 32 15 17 - - -
19/11:30am - - - - - WNW 32 35 17 19 - - -
19/11:00am - - - - - WNW 32 35 17 19 - - -
19/10:30am - - - - - WNW 30 33 16 18 - - -
19/10:00am - - - - - WNW 28 33 15 18 - - -
19/09:30am - - - - - WNW 32 37 17 20 - - -
19/09:00am - - - - - WNW 35 41 19 22 - - -
19/08:30am - - - - - WNW 37 44 20 24 - - -
19/08:00am - - - - - WNW 33 37 18 20 - - -
19/07:30am - - - - - WNW 35 39 19 21 - - -
19/07:00am - - - - - WNW 37 44 20 24 - - -
19/06:30am - - - - - WNW 35 41 19 22 - - -
19/06:00am - - - - - NW 33 43 18 23 - - -
19/05:30am - - - - - WNW 35 44 19 24 - - -
19/05:00am - - - - - WNW 37 46 20 25 - - -
19/04:30am - - - - - WNW 35 41 19 22 - - -
19/04:00am - - - - - WNW 30 37 16 20 - - -
19/03:30am - - - - - WNW 35 41 19 22 - - -
19/03:00am - - - - - WNW 33 39 18 21 - - -
19/02:30am - - - - - WNW 30 39 16 21 - - -
19/02:00am - - - - - WNW 30 33 16 18 - - -
19/01:30am - - - - - WNW 30 33 16 18 - - -
19/01:00am - - - - - NNW 22 30 12 16 - - -
19/12:30am - - - - - N 19 24 10 13 - - -
19/12:00am - - - - - NNW 22 26 12 14 - - -
 
Date/Time
EST
Temp
°C
App
Temp
°C
Dew
Point
°C
Rel
Hum
%
Delta-T
°C
Wind Press
QNH
hPa
Press
MSL
hPa
Rain since
9am
mm
Dir  Spd
km/h
Gust
km/h
Spd
kts
Gust
kts
18/11:30pm - - - - - NNW 26 32 14 17 - - -
18/11:00pm - - - - - NW 22 26 12 14 - - -
18/10:30pm - - - - - NW 17 20 9 11 - - -
18/10:00pm - - - - - WNW 24 30 13 16 - - -
18/09:30pm - - - - - WNW 22 32 12 17 - - -
18/09:00pm - - - - - W 26 32 14 17 - - -
18/08:30pm - - - - - WNW 26 37 14 20 - - -
18/08:00pm - - - - - W 35 44 19 24 - - -
18/07:30pm - - - - - W 28 35 15 19 - - -
18/07:00pm - - - - - N 28 32 15 17 - - -
18/06:30pm - - - - - N 30 39 16 21 - - -
18/06:00pm - - - - - N 32 37 17 20 - - -
18/05:30pm - - - - - N 30 35 16 19 - - -
18/05:00pm - - - - - NNW 35 43 19 23 - - -
18/04:30pm - - - - - NW 30 35 16 19 - - -
18/04:00pm - - - - - NW 37 48 20 26 - - -
18/03:30pm - - - - - NW 32 39 17 21 - - -
18/03:00pm - - - - - WNW 33 48 18 26 - - -
18/02:56pm - - - - - WNW 30 48 16 26 - - -
18/02:30pm - - - - - WNW 32 37 17 20 - - -
18/02:00pm - - - - - NW 20 26 11 14 - - -
18/01:30pm - - - - - NNW 22 30 12 16 - - -
18/01:00pm - - - - - N 35 48 19 26 - - -
18/12:30pm - - - - - N 35 46 19 25 - - -
18/12:00pm - - - - - N 32 43 17 23 - - -
18/11:30am - - - - - N 37 48 20 26 - - -
18/11:14am - - - - - N 32 46 17 25 - - -
18/11:00am - - - - - N 20 28 11 15 - - -
18/10:30am - - - - - N 32 39 17 21 - - -
18/10:00am - - - - - N 37 50 20 27 - - -
18/09:30am - - - - - N 39 50 21 27 - - -
18/09:00am - - - - - N 37 48 20 26 - - -
18/08:30am - - - - - N 30 39 16 21 - - -
18/08:00am - - - - - N 32 39 17 21 - - -
18/07:30am - - - - - N 33 41 18 22 - - -
18/07:00am - - - - - NNE 33 44 18 24 - - -
18/06:30am - - - - - NNE 33 43 18 23 - - -
18/06:00am - - - - - NNE 32 41 17 22 - - -
18/05:30am - - - - - N 33 46 18 25 - - -
18/05:00am - - - - - N 35 41 19 22 - - -
18/04:30am - - - - - N 32 39 17 21 - - -
18/04:00am - - - - - NNE 30 37 16 20 - - -
18/03:30am - - - - - N 20 24 11 13 - - -
18/03:00am - - - - - N 26 32 14 17 - - -
18/02:30am - - - - - N 28 35 15 19 - - -
18/02:00am - - - - - N 19 22 10 12 - - -
18/01:30am - - - - - N 20 26 11 14 - - -
18/01:00am - - - - - N 19 22 10 12 - - -
18/12:30am - - - - - NNE 19 24 10 13 - - -
18/12:00am - - - - - NNE 15 22 8 12 - - -
 
Date/Time
EST
Temp
°C
App
Temp
°C
Dew
Point
°C
Rel
Hum
%
Delta-T
°C
Wind Press
QNH
hPa
Press
MSL
hPa
Rain since
9am
mm
Dir  Spd
km/h
Gust
km/h
Spd
kts
Gust
kts
17/11:30pm - - - - - NE 17 24 9 13 - - -
17/11:00pm - - - - - NE 13 20 7 11 - - -
17/10:30pm - - - - - NE 13 17 7 9 - - -
17/10:00pm - - - - - NE 17 28 9 15 - - -
17/09:30pm - - - - - NE 15 24 8 13 - - -
17/09:00pm - - - - - NE 15 24 8 13 - - -
17/08:30pm - - - - - NE 13 20 7 11 - - -
17/08:00pm - - - - - NE 15 24 8 13 - - -
17/07:30pm - - - - - NE 13 20 7 11 - - -
17/07:00pm - - - - - NE 19 28 10 15 - - -
17/06:30pm - - - - - NNE 28 33 15 18 - - -
17/06:00pm - - - - - N 30 35 16 19 - - -
17/05:30pm - - - - - N 28 35 15 19 - - -
17/05:00pm - - - - - N 30 35 16 19 - - -
17/04:30pm - - - - - N 20 28 11 15 - - -
17/04:00pm - - - - - N 20 26 11 14 - - -
17/03:30pm - - - - - N 24 28 13 15 - - -
17/03:00pm - - - - - N 26 30 14 16 - - -
17/02:30pm - - - - - N 24 30 13 16 - - -
17/02:00pm - - - - - N 22 28 12 15 - - -
17/01:30pm - - - - - N 22 32 12 17 - - -
17/01:00pm - - - - - N 26 32 14 17 - - -
17/12:30pm - - - - - N 22 28 12 15 - - -
17/12:00pm - - - - - N 20 30 11 16 - - -
17/11:30am - - - - - N 22 28 12 15 - - -
17/11:00am - - - - - NNW 22 28 12 15 - - -
17/10:30am - - - - - N 24 30 13 16 - - -
17/10:00am - - - - - NNW 22 28 12 15 - - -
17/09:30am - - - - - N 22 28 12 15 - - -
17/09:00am - - - - - N 22 28 12 15 - - -
17/08:30am - - - - - N 24 30 13 16 - - -
17/08:00am - - - - - N 28 32 15 17 - - -
17/07:30am - - - - - N 24 30 13 16 - - -
17/07:00am - - - - - N 26 30 14 16 - - -
17/06:30am - - - - - N 24 28 13 15 - - -
17/06:00am - - - - - NNE 15 24 8 13 - - -
17/05:30am - - - - - N 20 26 11 14 - - -
17/05:00am - - - - - N 19 24 10 13 - - -
17/04:30am - - - - - N 20 24 11 13 - - -
17/04:00am - - - - - N 20 26 11 14 - - -
17/03:30am - - - - - N 19 22 10 12 - - -
17/03:00am - - - - - NNW 17 20 9 11 - - -
17/02:30am - - - - - N 19 22 10 12 - - -
17/02:00am - - - - - N 17 20 9 11 - - -
17/01:30am - - - - - N 19 22 10 12 - - -
17/01:00am - - - - - N 19 24 10 13 - - -
17/12:30am - - - - - N 19 26 10 14 - - -
17/12:00am - - - - - NNW 17 19 9 10 - - -
 
Date/Time
EST
Temp
°C
App
Temp
°C
Dew
Point
°C
Rel
Hum
%
Delta-T
°C
Wind Press
QNH
hPa
Press
MSL
hPa
Rain since
9am
mm
Dir  Spd
km/h
Gust
km/h
Spd
kts
Gust
kts
16/11:30pm - - - - - NNW 19 22 10 12 - - -
16/11:00pm - - - - - NW 17 19 9 10 - - -
16/10:30pm - - - - - NW 17 19 9 10 - - -
16/10:00pm - - - - - ENE 6 7 3 4 - - -
16/09:30pm - - - - - ESE 7 9 4 5 - - -
16/09:00pm - - - - - ESE 7 7 4 4 - - -
16/08:30pm - - - - - CALM 0 0 0 0 - - -
16/08:00pm - - - - - SSW 6 7 3 4 - - -
16/07:30pm - - - - - NNW 4 6 2 3 - - -
16/07:00pm - - - - - N 7 9 4 5 - - -
16/06:30pm - - - - - WNW 6 7 3 4 - - -
16/06:00pm - - - - - WSW 11 15 6 8 - - -
16/05:30pm - - - - - WSW 9 11 5 6 - - -
16/05:00pm - - - - - WSW 15 17 8 9 - - -
16/04:30pm - - - - - WNW 13 19 7 10 - - -
16/04:00pm - - - - - WNW 15 19 8 10 - - -
16/03:30pm - - - - - W 17 19 9 10 - - -

Other Formats:

Comma delimited format used in spreadsheet applications
http://www.bom.gov.au/fwo/IDV60801/IDV60801.94871.axf

JavaScript Object Notation format (JSON) in row-major order
http://www.bom.gov.au/fwo/IDV60801/IDV60801.94871.json